sensor_id;sensor_type;location;lat;lon;timestamp;pressure;altitude;pressure_sealevel;temperature;humidity
74578;BME280;63173;49.086;33.418;2023-06-14T00:01:00;100245.09;;;16.09;92.86
74578;BME280;63173;49.086;33.418;2023-06-14T00:03:28;100248.16;;;16.16;91.73
74578;BME280;63173;49.086;33.418;2023-06-14T00:05:54;100252.66;;;16.21;92.40
74578;BME280;63173;49.086;33.418;2023-06-14T00:08:19;100244.25;;;16.26;92.10
74578;BME280;63173;49.086;33.418;2023-06-14T00:10:46;100240.75;;;16.08;93.44
74578;BME280;63173;49.086;33.418;2023-06-14T00:13:12;100237.22;;;16.08;94.24
74578;BME280;63173;49.086;33.418;2023-06-14T00:15:37;100233.50;;;16.03;93.80
74578;BME280;63173;49.086;33.418;2023-06-14T00:18:03;100241.38;;;16.22;92.83
74578;BME280;63173;49.086;33.418;2023-06-14T00:20:31;100235.44;;;16.03;93.18
74578;BME280;63173;49.086;33.418;2023-06-14T00:23:01;100237.50;;;16.23;92.83
74578;BME280;63173;49.086;33.418;2023-06-14T00:25:27;100236.03;;;16.26;92.64
74578;BME280;63173;49.086;33.418;2023-06-14T00:27:53;100238.34;;;16.07;93.49
74578;BME280;63173;49.086;33.418;2023-06-14T00:30:19;100237.50;;;16.15;93.24
74578;BME280;63173;49.086;33.418;2023-06-14T00:32:45;100238.16;;;16.20;93.55
74578;BME280;63173;49.086;33.418;2023-06-14T00:35:11;100243.31;;;16.22;93.11
74578;BME280;63173;49.086;33.418;2023-06-14T00:37:37;100245.88;;;16.18;92.81
74578;BME280;63173;49.086;33.418;2023-06-14T00:40:03;100254.78;;;15.81;93.61
74578;BME280;63173;49.086;33.418;2023-06-14T00:42:30;100256.56;;;15.85;94.61
74578;BME280;63173;49.086;33.418;2023-06-14T00:44:56;100254.44;;;15.65;94.38
74578;BME280;63173;49.086;33.418;2023-06-14T00:47:21;100247.63;;;15.29;99.43
74578;BME280;63173;49.086;33.418;2023-06-14T00:49:48;100246.50;;;15.38;100.00
74578;BME280;63173;49.086;33.418;2023-06-14T00:52:15;100248.81;;;15.53;97.38
74578;BME280;63173;49.086;33.418;2023-06-14T00:54:41;100244.63;;;15.47;97.96
74578;BME280;63173;49.086;33.418;2023-06-14T00:57:07;100254.59;;;15.43;98.64
74578;BME280;63173;49.086;33.418;2023-06-14T00:59:35;100250.44;;;15.63;98.74
74578;BME280;63173;49.086;33.418;2023-06-14T01:02:04;100251.41;;;15.75;97.12
74578;BME280;63173;49.086;33.418;2023-06-14T01:04:29;100253.16;;;15.88;97.38
74578;BME280;63173;49.086;33.418;2023-06-14T01:15:06;100248.69;;;15.84;96.60
74578;BME280;63173;49.086;33.418;2023-06-14T01:17:33;100250.28;;;15.76;96.53
74578;BME280;63173;49.086;33.418;2023-06-14T01:20:01;100252.03;;;15.64;97.25
74578;BME280;63173;49.086;33.418;2023-06-14T01:22:28;100256.72;;;15.72;97.90
74578;BME280;63173;49.086;33.418;2023-06-14T01:24:54;100254.94;;;15.67;97.94
74578;BME280;63173;49.086;33.418;2023-06-14T01:27:26;100253.03;;;15.76;97.03
74578;BME280;63173;49.086;33.418;2023-06-14T01:29:55;100252.53;;;15.66;96.58
74578;BME280;63173;49.086;33.418;2023-06-14T01:32:27;100251.69;;;15.48;99.45
74578;BME280;63173;49.086;33.418;2023-06-14T01:34:53;100251.03;;;15.43;100.00
74578;BME280;63173;49.086;33.418;2023-06-14T01:37:20;100253.97;;;15.55;99.36
74578;BME280;63173;49.086;33.418;2023-06-14T01:39:47;100260.56;;;15.45;98.83
74578;BME280;63173;49.086;33.418;2023-06-14T01:42:15;100254.72;;;15.38;99.79
74578;BME280;63173;49.086;33.418;2023-06-14T01:44:42;100254.25;;;15.45;100.00
74578;BME280;63173;49.086;33.418;2023-06-14T01:47:09;100252.19;;;15.42;100.00
74578;BME280;63173;49.086;33.418;2023-06-14T01:49:35;100250.34;;;15.37;99.90
74578;BME280;63173;49.086;33.418;2023-06-14T01:52:01;100258.81;;;15.66;98.60
74578;BME280;63173;49.086;33.418;2023-06-14T01:54:26;100250.75;;;15.70;98.11
74578;BME280;63173;49.086;33.418;2023-06-14T01:56:52;100252.84;;;15.73;98.08
74578;BME280;63173;49.086;33.418;2023-06-14T01:59:18;100261.69;;;15.78;98.14
74578;BME280;63173;49.086;33.418;2023-06-14T02:01:43;100252.38;;;15.79;98.88
74578;BME280;63173;49.086;33.418;2023-06-14T02:04:09;100249.94;;;15.86;98.22
74578;BME280;63173;49.086;33.418;2023-06-14T02:06:35;100260.38;;;15.50;98.67
74578;BME280;63173;49.086;33.418;2023-06-14T02:09:01;100262.19;;;15.55;99.73
74578;BME280;63173;49.086;33.418;2023-06-14T02:11:26;100257.03;;;15.79;97.93
74578;BME280;63173;49.086;33.418;2023-06-14T02:13:52;100256.41;;;15.82;98.29
74578;BME280;63173;49.086;33.418;2023-06-14T02:16:17;100256.69;;;15.55;98.69
74578;BME280;63173;49.086;33.418;2023-06-14T02:18:43;100257.81;;;15.54;99.79
74578;BME280;63173;49.086;33.418;2023-06-14T02:21:08;100257.03;;;15.53;100.00
74578;BME280;63173;49.086;33.418;2023-06-14T02:23:34;100256.22;;;15.70;99.56
74578;BME280;63173;49.086;33.418;2023-06-14T02:25:59;100257.53;;;15.89;98.35
74578;BME280;63173;49.086;33.418;2023-06-14T02:28:24;100259.63;;;15.75;97.90
74578;BME280;63173;49.086;33.418;2023-06-14T02:30:50;100260.75;;;15.83;98.30
74578;BME280;63173;49.086;33.418;2023-06-14T02:33:16;100265.06;;;15.58;98.44
74578;BME280;63173;49.086;33.418;2023-06-14T02:35:43;100258.31;;;15.56;99.38
74578;BME280;63173;49.086;33.418;2023-06-14T02:38:08;100265.06;;;15.58;99.81
74578;BME280;63173;49.086;33.418;2023-06-14T02:40:33;100266.38;;;15.69;99.22
74578;BME280;63173;49.086;33.418;2023-06-14T02:42:59;100272.84;;;15.90;97.48
74578;BME280;63173;49.086;33.418;2023-06-14T02:45:25;100269.94;;;16.04;97.76
74578;BME280;63173;49.086;33.418;2023-06-14T02:47:50;100278.78;;;15.92;96.61
74578;BME280;63173;49.086;33.418;2023-06-14T02:50:16;100267.50;;;15.94;96.65
74578;BME280;63173;49.086;33.418;2023-06-14T02:52:43;100278.13;;;15.95;95.64
74578;BME280;63173;49.086;33.418;2023-06-14T02:55:10;100273.63;;;15.82;97.21
74578;BME280;63173;49.086;33.418;2023-06-14T02:57:35;100276.06;;;15.92;96.41
74578;BME280;63173;49.086;33.418;2023-06-14T03:00:00;100271.53;;;15.88;96.97
74578;BME280;63173;49.086;33.418;2023-06-14T03:02:26;100273.34;;;15.84;97.58
74578;BME280;63173;49.086;33.418;2023-06-14T03:04:51;100279.94;;;15.91;97.27
74578;BME280;63173;49.086;33.418;2023-06-14T03:07:17;100276.22;;;15.87;97.15
74578;BME280;63173;49.086;33.418;2023-06-14T03:09:45;100277.50;;;16.07;95.60
74578;BME280;63173;49.086;33.418;2023-06-14T03:12:10;100282.47;;;16.05;95.63
74578;BME280;63173;49.086;33.418;2023-06-14T03:14:36;100286.50;;;16.25;94.70
74578;BME280;63173;49.086;33.418;2023-06-14T03:17:05;100283.00;;;15.98;97.20
74578;BME280;63173;49.086;33.418;2023-06-14T03:19:30;100289.75;;;16.10;96.10
74578;BME280;63173;49.086;33.418;2023-06-14T03:21:56;100291.00;;;16.38;94.40
74578;BME280;63173;49.086;33.418;2023-06-14T03:24:24;100299.72;;;16.40;93.50
74578;BME280;63173;49.086;33.418;2023-06-14T03:26:52;100293.75;;;16.63;92.18
74578;BME280;63173;49.086;33.418;2023-06-14T03:29:18;100294.88;;;16.45;93.93
74578;BME280;63173;49.086;33.418;2023-06-14T03:32:04;100292.31;;;16.57;92.68
74578;BME280;63173;49.086;33.418;2023-06-14T03:34:29;100296.78;;;16.62;92.66
74578;BME280;63173;49.086;33.418;2023-06-14T03:36:55;100299.22;;;16.38;95.28
74578;BME280;63173;49.086;33.418;2023-06-14T03:39:20;100296.97;;;16.40;94.47
74578;BME280;63173;49.086;33.418;2023-06-14T03:41:46;100294.22;;;16.40;93.65
74578;BME280;63173;49.086;33.418;2023-06-14T03:44:15;100284.41;;;16.39;94.18
74578;BME280;63173;49.086;33.418;2023-06-14T03:46:40;100292.94;;;16.54;92.98
74578;BME280;63173;49.086;33.418;2023-06-14T03:49:06;100294.63;;;16.84;93.23
74578;BME280;63173;49.086;33.418;2023-06-14T03:51:32;100297.53;;;16.88;92.54
74578;BME280;63173;49.086;33.418;2023-06-14T03:54:00;100293.22;;;16.70;92.95
74578;BME280;63173;49.086;33.418;2023-06-14T03:56:25;100298.81;;;16.90;92.08
74578;BME280;63173;49.086;33.418;2023-06-14T03:58:52;100296.69;;;16.96;91.13
74578;BME280;63173;49.086;33.418;2023-06-14T04:01:17;100296.13;;;17.11;90.60
74578;BME280;63173;49.086;33.418;2023-06-14T04:03:43;100300.53;;;16.57;93.51
74578;BME280;63173;49.086;33.418;2023-06-14T04:06:08;100295.25;;;16.90;91.92
74578;BME280;63173;49.086;33.418;2023-06-14T04:08:34;100300.19;;;16.59;93.39
74578;BME280;63173;49.086;33.418;2023-06-14T04:11:00;100298.69;;;16.78;92.85
74578;BME280;63173;49.086;33.418;2023-06-14T04:13:26;100300.34;;;16.71;92.80
74578;BME280;63173;49.086;33.418;2023-06-14T04:15:51;100299.56;;;17.37;89.95
74578;BME280;63173;49.086;33.418;2023-06-14T04:18:17;100301.19;;;17.67;88.45
74578;BME280;63173;49.086;33.418;2023-06-14T04:20:43;100302.94;;;17.43;89.10
74578;BME280;63173;49.086;33.418;2023-06-14T04:23:13;100319.44;;;17.34;89.87
74578;BME280;63173;49.086;33.418;2023-06-14T04:25:39;100319.94;;;17.65;89.47
74578;BME280;63173;49.086;33.418;2023-06-14T04:28:05;100315.19;;;17.74;87.95
74578;BME280;63173;49.086;33.418;2023-06-14T04:30:34;100311.25;;;17.84;87.24
74578;BME280;63173;49.086;33.418;2023-06-14T04:33:00;100313.69;;;17.56;88.13
74578;BME280;63173;49.086;33.418;2023-06-14T04:35:25;100313.66;;;17.85;86.51
74578;BME280;63173;49.086;33.418;2023-06-14T04:37:52;100309.78;;;18.07;86.26
74578;BME280;63173;49.086;33.418;2023-06-14T04:40:18;100312.19;;;17.88;86.67
74578;BME280;63173;49.086;33.418;2023-06-14T04:42:44;100314.34;;;18.03;86.01
74578;BME280;63173;49.086;33.418;2023-06-14T04:45:11;100315.53;;;17.94;86.18
74578;BME280;63173;49.086;33.418;2023-06-14T04:47:38;100311.00;;;17.77;87.83
74578;BME280;63173;49.086;33.418;2023-06-14T04:50:04;100311.13;;;17.80;86.91
74578;BME280;63173;49.086;33.418;2023-06-14T04:52:30;100313.53;;;17.82;87.26
74578;BME280;63173;49.086;33.418;2023-06-14T04:54:55;100322.16;;;18.13;86.44
74578;BME280;63173;49.086;33.418;2023-06-14T04:57:21;100318.03;;;18.40;84.39
74578;BME280;63173;49.086;33.418;2023-06-14T04:59:48;100312.38;;;18.04;86.60
74578;BME280;63173;49.086;33.418;2023-06-14T05:02:13;100314.97;;;18.21;85.36
74578;BME280;63173;49.086;33.418;2023-06-14T05:04:39;100318.81;;;18.49;83.56
74578;BME280;63173;49.086;33.418;2023-06-14T05:07:08;100318.06;;;18.19;84.25
74578;BME280;63173;49.086;33.418;2023-06-14T05:09:34;100325.50;;;18.19;84.44
74578;BME280;63173;49.086;33.418;2023-06-14T05:12:00;100323.69;;;18.76;83.50
74578;BME280;63173;49.086;33.418;2023-06-14T05:14:26;100322.88;;;18.63;82.66
74578;BME280;63173;49.086;33.418;2023-06-14T05:16:52;100330.47;;;18.46;84.47
74578;BME280;63173;49.086;33.418;2023-06-14T05:19:18;100326.63;;;18.59;83.29
74578;BME280;63173;49.086;33.418;2023-06-14T05:21:44;100323.47;;;18.69;83.15
74578;BME280;63173;49.086;33.418;2023-06-14T05:24:09;100325.81;;;18.38;84.45
74578;BME280;63173;49.086;33.418;2023-06-14T05:26:36;100324.25;;;18.37;84.95
74578;BME280;63173;49.086;33.418;2023-06-14T05:29:02;100327.69;;;18.34;84.26
74578;BME280;63173;49.086;33.418;2023-06-14T05:31:28;100329.19;;;18.43;84.91
74578;BME280;63173;49.086;33.418;2023-06-14T05:33:54;100325.97;;;18.21;86.44
74578;BME280;63173;49.086;33.418;2023-06-14T05:36:20;100324.66;;;18.92;83.67
74578;BME280;63173;49.086;33.418;2023-06-14T05:38:48;100332.16;;;19.04;82.36
74578;BME280;63173;49.086;33.418;2023-06-14T05:41:16;100328.03;;;19.22;81.17
74578;BME280;63173;49.086;33.418;2023-06-14T05:43:41;100322.72;;;19.05;82.44
74578;BME280;63173;49.086;33.418;2023-06-14T05:46:07;100320.59;;;19.46;79.99
74578;BME280;63173;49.086;33.418;2023-06-14T05:48:32;100326.78;;;19.31;82.03
74578;BME280;63173;49.086;33.418;2023-06-14T05:50:58;100320.94;;;18.76;83.37
74578;BME280;63173;49.086;33.418;2023-06-14T05:53:24;100327.31;;;18.56;84.58
74578;BME280;63173;49.086;33.418;2023-06-14T05:55:50;100334.44;;;19.14;82.24
74578;BME280;63173;49.086;33.418;2023-06-14T05:58:18;100322.78;;;19.41;80.85
74578;BME280;63173;49.086;33.418;2023-06-14T06:00:44;100331.03;;;18.72;82.75
74578;BME280;63173;49.086;33.418;2023-06-14T06:03:09;100328.31;;;18.51;84.82
74578;BME280;63173;49.086;33.418;2023-06-14T06:05:36;100331.34;;;19.03;82.73
74578;BME280;63173;49.086;33.418;2023-06-14T06:08:02;100323.72;;;19.45;81.61
74578;BME280;63173;49.086;33.418;2023-06-14T06:10:27;100317.09;;;19.86;78.78
74578;BME280;63173;49.086;33.418;2023-06-14T06:12:52;100326.97;;;19.02;81.77
74578;BME280;63173;49.086;33.418;2023-06-14T06:15:19;100322.91;;;19.44;80.43
74578;BME280;63173;49.086;33.418;2023-06-14T06:17:45;100329.97;;;19.21;80.55
74578;BME280;63173;49.086;33.418;2023-06-14T06:20:11;100319.91;;;19.61;78.96
74578;BME280;63173;49.086;33.418;2023-06-14T06:22:37;100323.56;;;19.29;79.98
74578;BME280;63173;49.086;33.418;2023-06-14T06:25:03;100318.31;;;19.36;78.97
74578;BME280;63173;49.086;33.418;2023-06-14T06:27:28;100316.81;;;19.51;79.59
74578;BME280;63173;49.086;33.418;2023-06-14T06:29:54;100313.28;;;20.02;77.43
74578;BME280;63173;49.086;33.418;2023-06-14T06:32:19;100313.72;;;20.44;76.59
74578;BME280;63173;49.086;33.418;2023-06-14T06:34:45;100306.91;;;20.26;76.60
74578;BME280;63173;49.086;33.418;2023-06-14T06:37:10;100312.22;;;20.19;76.71
74578;BME280;63173;49.086;33.418;2023-06-14T06:39:36;100313.94;;;20.51;75.95
74578;BME280;63173;49.086;33.418;2023-06-14T06:42:01;100309.78;;;20.73;75.12
74578;BME280;63173;49.086;33.418;2023-06-14T06:44:27;100303.38;;;20.69;74.70
74578;BME280;63173;49.086;33.418;2023-06-14T06:46:52;100300.53;;;20.81;74.36
74578;BME280;63173;49.086;33.418;2023-06-14T06:49:18;100298.03;;;20.60;75.51
74578;BME280;63173;49.086;33.418;2023-06-14T06:51:43;100294.88;;;20.89;75.25
74578;BME280;63173;49.086;33.418;2023-06-14T06:54:23;100286.63;;;20.61;75.64
74578;BME280;63173;49.086;33.418;2023-06-14T06:56:49;100289.75;;;20.60;76.37
74578;BME280;63173;49.086;33.418;2023-06-14T06:59:14;100291.31;;;20.45;74.17
74578;BME280;63173;49.086;33.418;2023-06-14T07:01:42;100292.44;;;20.72;73.43
74578;BME280;63173;49.086;33.418;2023-06-14T07:04:07;100299.63;;;21.04;73.36
74578;BME280;63173;49.086;33.418;2023-06-14T07:06:33;100293.44;;;20.80;73.06
74578;BME280;63173;49.086;33.418;2023-06-14T07:08:58;100294.53;;;20.63;73.17
74578;BME280;63173;49.086;33.418;2023-06-14T07:11:26;100292.63;;;20.36;73.33
74578;BME280;63173;49.086;33.418;2023-06-14T07:13:52;100299.13;;;20.87;73.09
74578;BME280;63173;49.086;33.418;2023-06-14T07:16:17;100301.63;;;20.92;72.56
74578;BME280;63173;49.086;33.418;2023-06-14T07:18:42;100304.41;;;21.07;72.22
74578;BME280;63173;49.086;33.418;2023-06-14T07:21:08;100304.75;;;21.37;72.20
74578;BME280;63173;49.086;33.418;2023-06-14T07:23:34;100305.84;;;21.01;70.97
74578;BME280;63173;49.086;33.418;2023-06-14T07:26:00;100301.81;;;21.14;72.07
74578;BME280;63173;49.086;33.418;2023-06-14T07:28:26;100309.28;;;21.61;70.50
74578;BME280;63173;49.086;33.418;2023-06-14T07:30:51;100303.00;;;21.13;69.50
74578;BME280;63173;49.086;33.418;2023-06-14T07:33:16;100300.63;;;21.46;68.96
74578;BME280;63173;49.086;33.418;2023-06-14T07:35:42;100300.84;;;20.91;70.42
74578;BME280;63173;49.086;33.418;2023-06-14T07:38:07;100299.19;;;21.02;71.38
74578;BME280;63173;49.086;33.418;2023-06-14T07:40:33;100297.19;;;21.18;70.47
74578;BME280;63173;49.086;33.418;2023-06-14T07:42:58;100285.22;;;21.45;71.23
74578;BME280;63173;49.086;33.418;2023-06-14T07:45:24;100290.75;;;22.15;69.14
74578;BME280;63173;49.086;33.418;2023-06-14T07:47:49;100283.97;;;21.93;68.33
74578;BME280;63173;49.086;33.418;2023-06-14T07:50:15;100286.25;;;21.72;68.96
74578;BME280;63173;49.086;33.418;2023-06-14T07:52:40;100291.47;;;21.77;68.26
74578;BME280;63173;49.086;33.418;2023-06-14T07:55:06;100280.38;;;21.58;69.90
74578;BME280;63173;49.086;33.418;2023-06-14T07:57:32;100285.94;;;21.77;68.98
74578;BME280;63173;49.086;33.418;2023-06-14T07:59:57;100287.09;;;21.41;69.33
74578;BME280;63173;49.086;33.418;2023-06-14T08:02:23;100276.69;;;21.70;70.61
74578;BME280;63173;49.086;33.418;2023-06-14T08:04:49;100281.44;;;22.23;67.96
74578;BME280;63173;49.086;33.418;2023-06-14T08:07:14;100281.50;;;22.07;67.91
74578;BME280;63173;49.086;33.418;2023-06-14T08:09:40;100270.50;;;22.30;67.94
74578;BME280;63173;49.086;33.418;2023-06-14T08:12:06;100269.94;;;22.02;67.67
74578;BME280;63173;49.086;33.418;2023-06-14T08:14:35;100268.47;;;22.27;67.34
74578;BME280;63173;49.086;33.418;2023-06-14T08:17:00;100272.59;;;22.56;66.05
74578;BME280;63173;49.086;33.418;2023-06-14T08:19:26;100271.50;;;22.22;66.70
74578;BME280;63173;49.086;33.418;2023-06-14T08:21:51;100275.09;;;22.22;67.29
74578;BME280;63173;49.086;33.418;2023-06-14T08:24:21;100273.38;;;22.75;65.25
74578;BME280;63173;49.086;33.418;2023-06-14T08:26:49;100268.97;;;22.13;67.08
74578;BME280;63173;49.086;33.418;2023-06-14T08:29:15;100272.56;;;22.14;65.04
74578;BME280;63173;49.086;33.418;2023-06-14T08:31:40;100276.81;;;22.69;63.54
74578;BME280;63173;49.086;33.418;2023-06-14T08:34:06;100271.34;;;22.53;63.60
74578;BME280;63173;49.086;33.418;2023-06-14T08:36:32;100274.72;;;22.43;64.29
74578;BME280;63173;49.086;33.418;2023-06-14T08:38:57;100260.09;;;22.42;63.79
74578;BME280;63173;49.086;33.418;2023-06-14T08:41:22;100269.94;;;22.21;64.69
74578;BME280;63173;49.086;33.418;2023-06-14T08:43:50;100266.25;;;22.74;64.51
74578;BME280;63173;49.086;33.418;2023-06-14T08:46:17;100257.25;;;22.81;64.81
74578;BME280;63173;49.086;33.418;2023-06-14T08:48:46;100256.59;;;23.36;64.19
74578;BME280;63173;49.086;33.418;2023-06-14T08:51:12;100255.03;;;23.12;63.41
74578;BME280;63173;49.086;33.418;2023-06-14T08:53:40;100244.47;;;23.21;63.41
74578;BME280;63173;49.086;33.418;2023-06-14T08:56:08;100251.47;;;22.89;63.24
74578;BME280;63173;49.086;33.418;2023-06-14T08:58:47;100253.19;;;22.97;63.50
74578;BME280;63173;49.086;33.418;2023-06-14T09:01:14;100236.25;;;23.81;62.00
74578;BME280;63173;49.086;33.418;2023-06-14T09:03:42;100230.44;;;23.93;60.42
74578;BME280;63173;49.086;33.418;2023-06-14T09:06:09;100239.78;;;23.78;61.29
74578;BME280;63173;49.086;33.418;2023-06-14T09:08:43;100231.06;;;23.79;60.22
74578;BME280;63173;49.086;33.418;2023-06-14T09:11:13;100237.47;;;23.54;61.75
74578;BME280;63173;49.086;33.418;2023-06-14T09:13:39;100243.66;;;23.21;62.06
74578;BME280;63173;49.086;33.418;2023-06-14T09:16:06;100241.16;;;23.12;62.66
74578;BME280;63173;49.086;33.418;2023-06-14T09:18:36;100234.44;;;23.66;62.87
74578;BME280;63173;49.086;33.418;2023-06-14T09:21:02;100235.25;;;23.37;63.08
74578;BME280;63173;49.086;33.418;2023-06-14T09:23:27;100233.41;;;23.48;62.77
74578;BME280;63173;49.086;33.418;2023-06-14T09:25:53;100239.66;;;23.18;62.62
74578;BME280;63173;49.086;33.418;2023-06-14T09:28:18;100233.41;;;23.48;61.89
74578;BME280;63173;49.086;33.418;2023-06-14T09:30:45;100231.59;;;23.88;59.48
74578;BME280;63173;49.086;33.418;2023-06-14T09:33:16;100229.34;;;23.97;60.07
74578;BME280;63173;49.086;33.418;2023-06-14T09:35:42;100235.25;;;24.25;59.10
74578;BME280;63173;49.086;33.418;2023-06-14T09:38:10;100226.88;;;24.62;59.19
74578;BME280;63173;49.086;33.418;2023-06-14T09:40:35;100225.50;;;24.79;58.24
74578;BME280;63173;49.086;33.418;2023-06-14T09:43:05;100230.41;;;24.96;58.20
74578;BME280;63173;49.086;33.418;2023-06-14T09:45:31;100224.94;;;25.06;57.12
74578;BME280;63173;49.086;33.418;2023-06-14T09:47:58;100225.72;;;24.63;58.75
74578;BME280;63173;49.086;33.418;2023-06-14T09:50:23;100221.38;;;24.25;58.09
74578;BME280;63173;49.086;33.418;2023-06-14T09:52:51;100223.44;;;24.72;57.73
74578;BME280;63173;49.086;33.418;2023-06-14T09:55:18;100232.13;;;24.67;58.25
74578;BME280;63173;49.086;33.418;2023-06-14T09:57:45;100223.44;;;24.72;56.78
74578;BME280;63173;49.086;33.418;2023-06-14T10:00:14;100236.47;;;24.28;57.32
74578;BME280;63173;49.086;33.418;2023-06-14T10:02:42;100221.38;;;24.25;59.03
74578;BME280;63173;49.086;33.418;2023-06-14T10:05:15;100230.25;;;24.42;58.21
74578;BME280;63173;49.086;33.418;2023-06-14T10:07:48;100233.63;;;24.61;56.93
74578;BME280;63173;49.086;33.418;2023-06-14T10:10:17;100227.19;;;24.90;57.37
74578;BME280;63173;49.086;33.418;2023-06-14T10:12:44;100222.66;;;24.35;59.40
74578;BME280;63173;49.086;33.418;2023-06-14T10:15:10;100220.38;;;24.44;59.20
74578;BME280;63173;49.086;33.418;2023-06-14T10:17:47;100220.69;;;24.36;59.97
74578;BME280;63173;49.086;33.418;2023-06-14T10:20:39;100214.84;;;24.84;57.42
74578;BME280;63173;49.086;33.418;2023-06-14T10:23:16;100215.78;;;25.57;55.69
74578;BME280;63173;49.086;33.418;2023-06-14T10:25:42;100213.69;;;26.26;53.07
74578;BME280;63173;49.086;33.418;2023-06-14T10:28:16;100209.28;;;26.07;53.58
74578;BME280;63173;49.086;33.418;2023-06-14T10:31:01;100207.59;;;25.24;56.77
74578;BME280;63173;49.086;33.418;2023-06-14T10:33:29;100205.63;;;24.73;56.67
74578;BME280;63173;49.086;33.418;2023-06-14T10:36:10;100204.44;;;25.29;55.90
74578;BME280;63173;49.086;33.418;2023-06-14T10:38:59;100200.75;;;25.10;55.65
74578;BME280;63173;49.086;33.418;2023-06-14T10:41:27;100199.81;;;26.54;52.76
74578;BME280;63173;49.086;33.418;2023-06-14T10:46:35;100201.84;;;26.67;52.22
74578;BME280;63173;49.086;33.418;2023-06-14T10:49:01;100205.84;;;26.73;51.61
74578;BME280;63173;49.086;33.418;2023-06-14T10:51:29;100193.91;;;27.33;50.63
74578;BME280;63173;49.086;33.418;2023-06-14T10:53:56;100196.69;;;27.15;50.61
74578;BME280;63173;49.086;33.418;2023-06-14T10:56:27;100203.47;;;27.18;49.56
74578;BME280;63173;49.086;33.418;2023-06-14T10:58:54;100202.25;;;26.97;51.38
74578;BME280;63173;49.086;33.418;2023-06-14T11:04:11;100204.56;;;26.29;51.21
74578;BME280;63173;49.086;33.418;2023-06-14T11:06:50;100203.06;;;26.80;51.00
74578;BME280;63173;49.086;33.418;2023-06-14T11:11:48;100191.88;;;28.37;47.48
74578;BME280;63173;49.086;33.418;2023-06-14T11:14:16;100198.16;;;27.72;47.76
74578;BME280;63173;49.086;33.418;2023-06-14T11:16:47;100201.75;;;26.18;51.02
74578;BME280;63173;49.086;33.418;2023-06-14T11:19:13;100201.06;;;26.84;50.10
74578;BME280;63173;49.086;33.418;2023-06-14T11:21:42;100193.31;;;28.66;45.57
74578;BME280;63173;49.086;33.418;2023-06-14T11:24:10;100192.19;;;27.63;48.61
74578;BME280;63173;49.086;33.418;2023-06-14T11:26:37;100196.91;;;27.84;48.89
74578;BME280;63173;49.086;33.418;2023-06-14T11:29:03;100192.84;;;28.10;47.05
74578;BME280;63173;49.086;33.418;2023-06-14T11:31:29;100189.06;;;28.44;46.56
74578;BME280;63173;49.086;33.418;2023-06-14T11:33:55;100188.13;;;28.65;46.23
74578;BME280;63173;49.086;33.418;2023-06-14T11:36:23;100187.72;;;27.94;48.16
74578;BME280;63173;49.086;33.418;2023-06-14T11:38:48;100194.69;;;27.33;49.32
74578;BME280;63173;49.086;33.418;2023-06-14T11:41:14;100199.88;;;27.35;48.72
74578;BME280;63173;49.086;33.418;2023-06-14T11:43:40;100187.50;;;28.91;45.94
74578;BME280;63173;49.086;33.418;2023-06-14T11:46:12;100187.78;;;28.52;45.24
74578;BME280;63173;49.086;33.418;2023-06-14T11:48:41;100193.50;;;27.06;49.15
74578;BME280;63173;49.086;33.418;2023-06-14T11:51:07;100197.47;;;27.33;48.55
74578;BME280;63173;49.086;33.418;2023-06-14T11:53:33;100189.66;;;28.73;45.54
74578;BME280;63173;49.086;33.418;2023-06-14T11:55:59;100182.78;;;29.29;44.65
74578;BME280;63173;49.086;33.418;2023-06-14T11:58:25;100188.19;;;28.54;47.46
74578;BME280;63173;49.086;33.418;2023-06-14T12:00:52;100191.50;;;26.99;51.50
74578;BME280;63173;49.086;33.418;2023-06-14T12:03:22;100201.84;;;26.74;52.26
74578;BME280;63173;49.086;33.418;2023-06-14T12:05:48;100193.88;;;26.66;51.68
74578;BME280;63173;49.086;33.418;2023-06-14T12:08:14;100197.84;;;26.47;52.67
74578;BME280;63173;49.086;33.418;2023-06-14T12:10:42;100188.22;;;26.24;53.39
74578;BME280;63173;49.086;33.418;2023-06-14T12:13:09;100183.53;;;27.12;50.40
74578;BME280;63173;49.086;33.418;2023-06-14T12:15:34;100193.03;;;26.30;50.56
74578;BME280;63173;49.086;33.418;2023-06-14T12:18:00;100178.13;;;25.80;52.51
74578;BME280;63173;49.086;33.418;2023-06-14T12:20:30;100184.69;;;26.48;52.48
74578;BME280;63173;49.086;33.418;2023-06-14T12:22:58;100188.31;;;26.76;52.60
74578;BME280;63173;49.086;33.418;2023-06-14T12:25:34;100184.31;;;27.23;51.08
74578;BME280;63173;49.086;33.418;2023-06-14T12:28:10;100187.09;;;27.20;51.15
74578;BME280;63173;49.086;33.418;2023-06-14T12:30:37;100193.28;;;28.05;48.22
74578;BME280;63173;49.086;33.418;2023-06-14T12:33:05;100187.44;;;27.57;49.70
74578;BME280;63173;49.086;33.418;2023-06-14T12:35:31;100188.69;;;27.21;50.53
74578;BME280;63173;49.086;33.418;2023-06-14T12:37:56;100183.47;;;27.54;50.45
74578;BME280;63173;49.086;33.418;2023-06-14T12:40:22;100181.56;;;26.98;51.20
74578;BME280;63173;49.086;33.418;2023-06-14T12:42:48;100187.50;;;26.62;51.35
74578;BME280;63173;49.086;33.418;2023-06-14T12:45:13;100187.94;;;27.10;49.77
74578;BME280;63173;49.086;33.418;2023-06-14T12:47:39;100184.69;;;27.50;49.22
74578;BME280;63173;49.086;33.418;2023-06-14T12:50:05;100189.16;;;26.91;51.10
74578;BME280;63173;49.086;33.418;2023-06-14T12:52:31;100181.06;;;27.67;49.61
74578;BME280;63173;49.086;33.418;2023-06-14T12:54:57;100178.91;;;28.68;46.66